Time;durP1;ratioP1;P1;durP2;ratioP2;P2;SDS_P1;SDS_P2;PMS_P1;PMS_P2;Temp;Humidity;BMP_temperature;BMP_pressure;BME280_temperature;BME280_humidity;BME280_pressure;Samples;Min_cycle;Max_cycle;Signal;HPM_P1;HPM_P2
2022/08/22 00:02:47;;;;;;;10.75;5.53;;;18.90;99.90;;;;;;5014355;28;20140;-72
2022/08/22 00:05:32;;;;;;;11.95;5.95;;;18.90;99.90;;;;;;5041851;28;20053;-73
2022/08/22 00:08:10;;;;;;;9.90;5.00;;;18.90;99.90;;;;;;5016246;28;22011;-73
2022/08/22 00:11:10;;;;;;;10.77;5.45;;;19.00;99.90;;;;;;5027067;28;20068;-73
2022/08/22 00:13:50;;;;;;;12.02;5.10;;;19.00;99.90;;;;;;5009215;28;20064;-73
2022/08/22 00:17:09;;;;;;;10.55;5.28;;;19.00;99.90;;;;;;5018851;28;20128;-73
2022/08/22 00:19:40;;;;;;;11.27;5.10;;;18.90;99.90;;;;;;4960527;28;20082;-73
2022/08/22 00:22:20;;;;;;;12.65;4.97;;;18.90;99.90;;;;;;5018800;28;20136;-73
2022/08/22 00:25:14;;;;;;;16.10;5.65;;;18.90;99.90;;;;;;5022904;28;20045;-72
2022/08/22 00:28:20;;;;;;;11.25;4.78;;;18.80;99.90;;;;;;4990643;28;20056;-74
2022/08/22 00:30:48;;;;;;;11.32;5.80;;;18.90;99.90;;;;;;5007044;28;20055;-73
2022/08/22 00:33:46;;;;;;;10.52;4.95;;;18.90;99.90;;;;;;5024025;28;20057;-73
2022/08/22 00:36:42;;;;;;;12.35;5.60;;;18.90;99.90;;;;;;5016475;28;20777;-73
2022/08/22 00:39:32;;;;;;;10.70;5.07;;;18.80;99.90;;;;;;5021072;28;20465;-73
2022/08/22 00:42:25;;;;;;;9.52;4.82;;;18.80;99.90;;;;;;5013887;28;20068;-72
2022/08/22 00:45:23;;;;;;;11.18;4.75;;;18.90;99.90;;;;;;5024819;28;20056;-73
2022/08/22 00:48:10;;;;;;;10.27;4.72;;;18.80;99.90;;;;;;5019971;28;20029;-73
2022/08/22 00:51:10;;;;;;;13.32;5.20;;;18.80;99.90;;;;;;5021944;28;20053;-73
2022/08/22 00:54:02;;;;;;;10.82;5.43;;;18.90;99.90;;;;;;5022460;28;20162;-73
2022/08/22 00:56:46;;;;;;;11.02;5.22;;;18.80;99.90;;;;;;5019156;28;20061;-73
2022/08/22 00:59:24;;;;;;;12.18;5.40;;;18.80;99.90;;;;;;5022628;28;20080;-73
2022/08/22 01:01:52;;;;;;;14.23;5.63;;;18.90;99.90;;;;;;5021512;28;20148;-73
2022/08/22 01:04:56;;;;;;;16.42;6.05;;;18.90;99.90;;;;;;5026902;28;20049;-73
2022/08/22 01:07:35;;;;;;;9.82;4.90;;;18.90;99.90;;;;;;5027509;28;20378;-73
2022/08/22 01:10:34;;;;;;;12.52;5.18;;;18.90;99.90;;;;;;5023747;28;20120;-73
2022/08/22 01:13:32;;;;;;;13.05;5.47;;;18.90;99.90;;;;;;5023031;28;20057;-72
2022/08/22 01:16:26;;;;;;;11.48;5.55;;;18.80;99.90;;;;;;5018092;28;20045;-73
2022/08/22 01:19:05;;;;;;;11.50;5.38;;;18.80;99.90;;;;;;5017704;28;20057;-74
2022/08/22 01:22:09;;;;;;;10.23;5.60;;;18.80;99.90;;;;;;5029942;28;20377;-73
2022/08/22 01:27:34;;;;;;;12.95;5.43;;;18.70;99.90;;;;;;5023812;28;20180;-73
2022/08/22 01:30:25;;;;;;;12.95;5.60;;;18.60;99.90;;;;;;5025556;28;20092;-73
2022/08/22 01:33:23;;;;;;;11.10;5.43;;;18.60;99.90;;;;;;5023739;28;20075;-73
2022/08/22 01:35:51;;;;;;;11.52;5.63;;;18.50;99.90;;;;;;5021405;28;20057;-73
2022/08/22 01:38:19;;;;;;;11.20;5.82;;;18.40;99.90;;;;;;5024180;28;20107;-73
2022/08/22 01:40:45;;;;;;;11.50;5.75;;;18.40;99.90;;;;;;5027317;28;20046;-73
2022/08/22 01:43:59;;;;;;;10.00;5.72;;;18.40;99.90;;;;;;5027276;28;20091;-73
2022/08/22 01:46:46;;;;;;;11.25;6.03;;;18.40;99.90;;;;;;5028800;28;20496;-73
2022/08/22 01:49:19;;;;;;;12.73;6.45;;;18.40;99.90;;;;;;5044106;28;20045;-73
2022/08/22 01:52:09;;;;;;;10.98;5.43;;;18.40;99.90;;;;;;5027499;28;20041;-73
2022/08/22 01:54:41;;;;;;;11.70;5.65;;;18.40;99.90;;;;;;5029914;28;20037;-73
2022/08/22 01:57:08;;;;;;;9.32;5.55;;;18.40;99.90;;;;;;5010234;28;20058;-73
2022/08/22 01:59:41;;;;;;;10.80;5.30;;;18.40;99.90;;;;;;5037509;28;20520;-73
2022/08/22 02:02:15;;;;;;;13.50;5.57;;;18.30;99.90;;;;;;5022333;28;20048;-73
2022/08/22 02:05:04;;;;;;;8.98;5.43;;;18.20;99.90;;;;;;5024554;28;20064;-73
2022/08/22 02:07:48;;;;;;;10.45;5.50;;;18.20;99.90;;;;;;5020445;28;20069;-73
2022/08/22 02:10:38;;;;;;;14.93;5.68;;;18.10;99.90;;;;;;5029081;28;20525;-72
2022/08/22 02:13:22;;;;;;;12.52;5.78;;;18.10;99.90;;;;;;5008773;28;20058;-73
2022/08/22 02:16:15;;;;;;;12.32;5.53;;;18.10;99.90;;;;;;5027930;28;20045;-72
2022/08/22 02:19:14;;;;;;;12.75;5.03;;;18.10;99.90;;;;;;5022948;28;20417;-73
2022/08/22 02:21:46;;;;;;;9.93;5.38;;;18.00;99.90;;;;;;5025250;28;20049;-73
2022/08/22 02:24:39;;;;;;;10.60;5.40;;;18.00;99.90;;;;;;5020168;28;20041;-73
2022/08/22 02:27:11;;;;;;;8.02;4.53;;;17.90;99.90;;;;;;5028927;28;20049;-73
2022/08/22 02:29:57;;;;;;;14.75;5.78;;;17.90;99.90;;;;;;5018463;28;20072;-73
2022/08/22 02:32:29;;;;;;;8.68;5.93;;;17.90;99.90;;;;;;5024110;28;20420;-73
2022/08/22 02:35:13;;;;;;;11.85;6.35;;;17.80;99.90;;;;;;5018408;28;20053;-73
2022/08/22 02:37:57;;;;;;;13.82;7.07;;;17.80;99.90;;;;;;5028045;28;20447;-72
2022/08/22 02:40:45;;;;;;;14.45;7.40;;;17.80;99.90;;;;;;5026075;28;20054;-73
2022/08/22 02:43:36;;;;;;;12.57;7.28;;;17.80;99.90;;;;;;5021748;28;20081;-73
2022/08/22 02:46:16;;;;;;;13.20;7.18;;;17.80;99.90;;;;;;5023621;28;20061;-73
2022/08/22 02:48:54;;;;;;;11.15;7.00;;;17.80;99.90;;;;;;5020624;28;20060;-73
2022/08/22 02:51:47;;;;;;;11.88;7.20;;;17.90;99.90;;;;;;5025455;28;20080;-72
2022/08/22 02:54:22;;;;;;;14.98;8.10;;;17.90;99.90;;;;;;5027515;28;20440;-73
2022/08/22 02:57:19;;;;;;;14.82;7.47;;;17.90;99.90;;;;;;5024487;28;20045;-73
2022/08/22 03:00:17;;;;;;;11.80;7.47;;;18.00;99.90;;;;;;5023671;28;20052;-73
2022/08/22 03:02:57;;;;;;;12.75;7.85;;;18.00;99.90;;;;;;5025787;28;20045;-73
2022/08/22 03:05:40;;;;;;;13.88;8.23;;;18.00;99.90;;;;;;5025491;28;20064;-73
2022/08/22 03:08:21;;;;;;;12.57;7.35;;;18.00;99.90;;;;;;5021335;28;20835;-71
2022/08/22 03:11:01;;;;;;;12.20;7.78;;;18.00;99.90;;;;;;5022638;28;20050;-73
2022/08/22 03:13:48;;;;;;;13.35;7.95;;;18.10;99.90;;;;;;5020909;28;20037;-73
2022/08/22 03:16:16;;;;;;;14.82;8.25;;;18.10;99.90;;;;;;5019239;28;20073;-73
2022/08/22 03:19:17;;;;;;;11.80;8.45;;;18.10;99.90;;;;;;5023513;28;20041;-72
2022/08/22 03:21:53;;;;;;;16.25;8.80;;;18.00;99.90;;;;;;5016457;28;20493;-73
2022/08/22 03:24:52;;;;;;;17.30;9.63;;;18.00;99.90;;;;;;5025106;28;20460;-73
2022/08/22 03:27:27;;;;;;;15.77;9.30;;;18.00;99.90;;;;;;5018011;28;20112;-73
2022/08/22 03:29:58;;;;;;;12.90;9.38;;;17.90;99.90;;;;;;5015818;28;20545;-73
2022/08/22 03:32:50;;;;;;;16.23;8.90;;;17.90;99.90;;;;;;5021588;28;20041;-73
2022/08/22 03:35:44;;;;;;;15.85;9.13;;;18.00;99.90;;;;;;5027237;28;20049;-73
2022/08/22 03:38:43;;;;;;;15.63;8.65;;;18.00;99.90;;;;;;4998454;28;20058;-73
2022/08/22 03:41:37;;;;;;;13.57;8.93;;;18.00;99.90;;;;;;5010720;28;20069;-73
2022/08/22 03:44:14;;;;;;;13.82;9.18;;;18.00;99.90;;;;;;5015068;28;20071;-73
2022/08/22 03:46:51;;;;;;;12.07;8.90;;;18.00;99.90;;;;;;5022439;28;20400;-73
2022/08/22 03:49:32;;;;;;;;;;;18.10;99.90;;;;;;5027639;28;20096;-73
2022/08/22 03:52:13;;;;;;;13.48;9.55;;;18.00;99.90;;;;;;5022320;28;19921;-74
2022/08/22 03:55:00;;;;;;;12.30;9.30;;;18.00;99.90;;;;;;5019037;28;20119;-74
2022/08/22 03:57:45;;;;;;;17.10;9.57;;;18.00;99.90;;;;;;5019677;28;20049;-74
2022/08/22 04:00:29;;;;;;;16.10;10.07;;;18.00;99.90;;;;;;5030729;28;20049;-73
2022/08/22 04:03:56;;;;;;;15.73;9.40;;;18.00;99.90;;;;;;5025815;28;20044;-74
2022/08/22 04:06:43;;;;;;;15.70;9.70;;;18.00;99.90;;;;;;4951592;28;20058;-73
2022/08/22 04:09:23;;;;;;;12.52;9.05;;;18.00;99.90;;;;;;5023387;28;20095;-74
2022/08/22 04:12:10;;;;;;;14.90;8.93;;;17.90;99.90;;;;;;5026128;28;20045;-73
2022/08/22 04:14:42;;;;;;;15.77;9.43;;;17.80;99.90;;;;;;5019373;28;20076;-74
2022/08/22 04:17:38;;;;;;;12.30;8.88;;;17.80;99.90;;;;;;5011649;28;20069;-74
2022/08/22 04:20:41;;;;;;;16.33;9.45;;;17.80;99.90;;;;;;5010513;28;20172;-73
2022/08/22 04:23:32;;;;;;;13.75;9.30;;;17.80;99.90;;;;;;5023389;28;20543;-74
2022/08/22 04:26:04;;;;;;;13.93;8.98;;;17.70;99.90;;;;;;5022543;28;20047;-74
2022/08/22 04:28:48;;;;;;;12.25;8.68;;;17.80;99.90;;;;;;5013986;28;20048;-73
2022/08/22 04:31:21;;;;;;;17.85;9.73;;;17.70;99.90;;;;;;5023057;28;20132;-74
2022/08/22 04:33:56;;;;;;;16.95;9.57;;;17.80;99.90;;;;;;5019509;28;20049;-73
2022/08/22 04:36:28;;;;;;;13.15;8.98;;;17.70;99.90;;;;;;5023425;28;20520;-74
2022/08/22 04:38:53;;;;;;;13.57;8.90;;;17.70;99.90;;;;;;5025607;28;20057;-74
2022/08/22 04:41:30;;;;;;;22.60;9.23;;;17.70;99.90;;;;;;5025552;28;20046;-74
2022/08/22 04:44:02;;;;;;;17.13;9.77;;;17.70;99.90;;;;;;5019252;28;20046;-74
2022/08/22 04:46:45;;;;;;;13.65;9.32;;;17.60;99.90;;;;;;5021630;28;20053;-74
2022/08/22 04:49:51;;;;;;;15.68;9.50;;;17.60;99.90;;;;;;5011393;28;20117;-74
2022/08/22 04:52:47;;;;;;;17.77;9.90;;;17.60;99.90;;;;;;5015163;28;20219;-74
2022/08/22 04:55:31;;;;;;;15.10;9.67;;;17.60;99.90;;;;;;5031450;28;20041;-74
2022/08/22 04:58:38;;;;;;;13.13;9.32;;;17.50;99.90;;;;;;5026864;28;20516;-74
2022/08/22 05:01:19;;;;;;;13.60;9.98;;;17.60;99.90;;;;;;5019595;28;20068;-74
2022/08/22 05:04:12;;;;;;;14.05;9.80;;;17.50;99.90;;;;;;5026332;28;20048;-74
2022/08/22 05:06:44;;;;;;;15.85;9.70;;;17.60;99.90;;;;;;5030180;28;20041;-73
2022/08/22 05:09:15;;;;;;;14.13;9.70;;;17.70;99.90;;;;;;5028030;28;20161;-73
2022/08/22 05:11:44;;;;;;;13.43;9.55;;;17.70;99.90;;;;;;5016476;28;20136;-73
2022/08/22 05:14:28;;;;;;;15.27;9.70;;;17.80;99.90;;;;;;5015233;28;20048;-73
2022/08/22 05:16:58;;;;;;;17.42;9.82;;;17.80;99.90;;;;;;5026929;28;20067;-73
2022/08/22 05:19:30;;;;;;;17.42;10.65;;;17.90;99.90;;;;;;5025344;28;20061;-73
2022/08/22 05:21:56;;;;;;;16.55;9.80;;;17.90;99.90;;;;;;5018179;28;20380;-73
2022/08/22 05:24:38;;;;;;;14.98;9.50;;;17.90;99.90;;;;;;5028138;28;20041;-73
2022/08/22 05:27:17;;;;;;;15.13;9.20;;;17.90;99.90;;;;;;5022591;28;20401;-73
2022/08/22 05:29:47;;;;;;;15.65;9.50;;;17.90;99.90;;;;;;5029866;28;20042;-73
2022/08/22 05:32:25;;;;;;;14.55;9.65;;;18.00;99.90;;;;;;5019003;28;20053;-73
2022/08/22 05:34:54;;;;;;;16.25;10.07;;;18.00;99.90;;;;;;5048205;28;20564;-71
2022/08/22 05:37:28;;;;;;;15.52;9.63;;;18.00;99.90;;;;;;5027137;28;20049;-71
2022/08/22 05:39:57;;;;;;;15.50;9.98;;;18.00;99.90;;;;;;5023685;28;20046;-71
2022/08/22 05:42:31;;;;;;;17.90;10.13;;;18.00;99.90;;;;;;5023588;28;20482;-72
2022/08/22 05:45:00;;;;;;;15.57;9.93;;;18.10;99.90;;;;;;5019004;28;20049;-71
2022/08/22 05:47:33;;;;;;;16.05;10.68;;;18.10;99.90;;;;;;5023573;28;20046;-71
2022/08/22 05:50:13;;;;;;;17.90;10.73;;;18.10;99.90;;;;;;5023666;28;20103;-70
2022/08/22 05:53:16;;;;;;;15.25;10.18;;;18.20;99.90;;;;;;5030074;28;20056;-70
2022/08/22 05:56:01;;;;;;;15.10;9.43;;;18.20;99.90;;;;;;5027294;28;20045;-71
2022/08/22 05:58:48;;;;;;;13.50;10.15;;;18.20;99.90;;;;;;5021620;28;20049;-71
2022/08/22 06:01:17;;;;;;;;;;;18.20;99.90;;;;;;5020495;28;20102;-70
2022/08/22 06:03:55;;;;;;;13.23;9.48;;;18.20;99.90;;;;;;5017965;28;19921;-70
2022/08/22 06:06:23;;;;;;;13.98;9.60;;;18.20;99.90;;;;;;5024067;28;20064;-71
2022/08/22 06:09:10;;;;;;;16.50;10.35;;;18.30;99.90;;;;;;5025587;28;20131;-70
2022/08/22 06:11:39;;;;;;;;;;;18.30;99.90;;;;;;5024365;28;20476;-70
2022/08/22 06:14:24;;;;;;;15.07;9.98;;;18.20;99.90;;;;;;5022518;28;19929;-70
2022/08/22 06:16:58;;;;;;;19.08;11.25;;;18.30;99.90;;;;;;5022199;28;20416;-70
2022/08/22 06:19:24;;;;;;;18.77;10.10;;;18.30;99.90;;;;;;5015126;28;20046;-71
2022/08/22 06:21:53;;;;;;;13.18;9.38;;;18.30;99.90;;;;;;5019935;28;20091;-70
2022/08/22 06:24:23;;;;;;;17.08;10.00;;;18.30;99.90;;;;;;5018565;28;20132;-70
2022/08/22 06:26:51;;;;;;;16.05;9.93;;;18.30;99.90;;;;;;5016045;28;20815;-70
2022/08/22 06:29:35;;;;;;;14.63;9.38;;;18.30;99.90;;;;;;5019621;28;20045;-72
2022/08/22 06:32:09;;;;;;;14.88;9.85;;;18.40;99.90;;;;;;5023163;28;20041;-72
2022/08/22 06:34:40;;;;;;;17.95;9.95;;;18.40;99.90;;;;;;5025654;28;20076;-72
2022/08/22 06:37:11;;;;;;;15.50;9.23;;;18.40;99.90;;;;;;5018753;28;20057;-72
2022/08/22 06:39:44;;;;;;;15.55;9.70;;;18.40;99.90;;;;;;5013227;28;20049;-72
2022/08/22 06:42:18;;;;;;;12.20;9.10;;;18.50;99.90;;;;;;5020189;28;20050;-72
2022/08/22 06:44:54;;;;;;;12.88;8.68;;;18.50;99.90;;;;;;5024756;28;20076;-72
2022/08/22 06:47:28;;;;;;;16.27;8.60;;;18.60;99.90;;;;;;5021259;28;20601;-68
2022/08/22 06:50:00;;;;;;;13.00;8.85;;;18.70;99.90;;;;;;5020873;28;20045;-72
2022/08/22 06:52:31;;;;;;;15.68;8.25;;;18.70;99.90;;;;;;5026983;28;20087;-73
2022/08/22 06:55:01;;;;;;;16.85;8.75;;;18.70;99.90;;;;;;5027804;28;20072;-70
2022/08/22 06:57:42;;;;;;;15.05;7.80;;;18.80;99.90;;;;;;5019238;28;20040;-76
2022/08/22 07:00:12;;;;;;;13.70;7.90;;;18.80;99.90;;;;;;5021284;28;20057;-75
2022/08/22 07:02:51;;;;;;;14.98;7.85;;;18.90;99.90;;;;;;5028676;28;20107;-74
2022/08/22 07:05:21;;;;;;;16.48;8.30;;;19.00;99.90;;;;;;5028590;28;20052;-74
2022/08/22 07:07:49;;;;;;;14.88;7.47;;;19.00;99.90;;;;;;5029151;28;20041;-74
2022/08/22 07:10:15;;;;;;;;;;;18.90;99.90;;;;;;5026980;28;20138;-75
2022/08/22 07:12:47;;;;;;;12.70;7.03;;;19.00;99.90;;;;;;5035659;28;20272;-74
2022/08/22 07:15:34;;;;;;;12.43;6.90;;;19.00;99.90;;;;;;5029115;28;20658;-74
2022/08/22 07:18:01;;;;;;;;;;;19.00;99.90;;;;;;5035138;28;20046;-73
2022/08/22 07:20:37;;;;;;;16.45;7.03;;;19.00;99.90;;;;;;5017084;28;19921;-75
2022/08/22 07:23:13;;;;;;;14.45;6.82;;;19.00;99.90;;;;;;5030911;28;20049;-75
2022/08/22 07:25:50;;;;;;;11.77;6.93;;;19.10;99.90;;;;;;5029649;28;20057;-75
2022/08/22 07:28:22;;;;;;;18.42;7.32;;;19.20;99.90;;;;;;5028872;28;20045;-74
2022/08/22 07:30:57;;;;;;;16.35;7.25;;;19.30;99.90;;;;;;5027329;28;20068;-75
2022/08/22 07:33:43;;;;;;;14.48;7.15;;;19.20;99.90;;;;;;5026271;28;20445;-76
2022/08/22 07:36:28;;;;;;;13.63;6.95;;;19.30;99.90;;;;;;5024651;28;20049;-76
2022/08/22 07:39:12;;;;;;;16.00;6.70;;;19.30;99.90;;;;;;5024979;28;20481;-76
2022/08/22 07:41:58;;;;;;;13.45;6.50;;;19.30;99.90;;;;;;5029584;28;20499;-76
2022/08/22 07:44:30;;;;;;;15.45;5.97;;;19.40;99.90;;;;;;5027678;28;20049;-75
2022/08/22 07:47:04;;;;;;;14.77;6.03;;;19.40;99.90;;;;;;5028594;28;20543;-73
2022/08/22 07:49:53;;;;;;;16.52;6.65;;;19.50;99.90;;;;;;5025201;28;20116;-79
2022/08/22 07:52:20;;;;;;;18.33;7.47;;;19.50;99.90;;;;;;5015656;28;20057;-77
2022/08/22 07:54:56;;;;;;;14.63;6.53;;;19.60;99.90;;;;;;5027203;28;20087;-76
2022/08/22 07:57:39;;;;;;;11.85;6.40;;;19.60;99.90;;;;;;5026732;28;20049;-78
2022/08/22 08:00:13;;;;;;;15.93;6.72;;;19.70;99.90;;;;;;5010091;28;20085;-77
2022/08/22 08:02:45;;;;;;;11.80;5.45;;;19.70;99.90;;;;;;5027433;28;20042;-76
2022/08/22 08:05:12;;;;;;;11.90;6.25;;;19.80;99.90;;;;;;5018513;28;20782;-78
2022/08/22 08:07:42;;;;;;;18.48;6.32;;;19.90;99.90;;;;;;5027271;28;20068;-77
2022/08/22 08:10:16;;;;;;;17.52;6.65;;;20.00;99.90;;;;;;5027704;28;20128;-77
2022/08/22 08:12:49;;;;;;;17.50;6.28;;;20.00;99.90;;;;;;5026637;28;20049;-77
2022/08/22 08:15:21;;;;;;;13.95;5.97;;;20.10;99.90;;;;;;5027731;28;20048;-77
2022/08/22 08:17:53;;;;;;;17.58;6.47;;;20.20;99.90;;;;;;5027740;28;20144;-78
2022/08/22 08:20:22;;;;;;;17.08;6.30;;;20.20;99.90;;;;;;5026306;28;21418;-78
2022/08/22 08:22:49;;;;;;;15.77;6.35;;;20.30;99.90;;;;;;5037221;28;20049;-74
2022/08/22 08:25:29;;;;;;;14.32;5.45;;;20.30;99.90;;;;;;5024253;28;20052;-74
2022/08/22 08:30:58;;;;;;;15.10;5.35;;;20.40;99.90;;;;;;5024733;28;20093;-74
2022/08/22 08:33:27;;;;;;;15.50;5.60;;;20.40;99.90;;;;;;5006763;28;20077;-74
2022/08/22 08:36:18;;;;;;;18.33;5.90;;;20.40;99.90;;;;;;5006240;28;20050;-74
2022/08/22 08:38:55;;;;;;;13.43;4.82;;;20.40;99.90;;;;;;5002244;28;20112;-74
2022/08/22 08:41:53;;;;;;;12.07;4.60;;;20.50;99.90;;;;;;5019485;28;20046;-74
2022/08/22 08:44:31;;;;;;;16.88;5.28;;;20.50;99.90;;;;;;5027755;28;20081;-74
2022/08/22 08:47:18;;;;;;;14.55;4.90;;;20.50;99.90;;;;;;5025498;28;20073;-75
2022/08/22 08:50:08;;;;;;;12.50;4.57;;;20.60;99.90;;;;;;5026667;28;20508;-75
2022/08/22 08:52:33;;;;;;;12.57;4.35;;;20.60;99.90;;;;;;5010815;28;20045;-75
2022/08/22 08:55:05;;;;;;;12.45;4.47;;;20.70;99.90;;;;;;5008233;28;20038;-75
2022/08/22 08:58:06;;;;;;;13.57;4.35;;;20.80;99.90;;;;;;5026682;28;20136;-75
2022/08/22 09:00:44;;;;;;;14.23;4.57;;;20.90;99.90;;;;;;5026046;28;20049;-75
2022/08/22 09:03:18;;;;;;;12.27;4.03;;;20.90;99.90;;;;;;5026124;28;20049;-75
2022/08/22 09:06:05;;;;;;;12.65;4.38;;;21.10;99.90;;;;;;5028139;28;20037;-75
2022/08/22 09:08:46;;;;;;;11.15;3.90;;;21.10;99.90;;;;;;5026971;28;20049;-75
2022/08/22 09:11:14;;;;;;;12.13;4.30;;;21.20;99.90;;;;;;5016149;28;20046;-75
2022/08/22 09:14:20;;;;;;;12.65;3.70;;;21.30;99.90;;;;;;5008047;28;20456;-75
2022/08/22 09:17:03;;;;;;;13.90;4.00;;;21.40;99.90;;;;;;4988267;28;20061;-75
2022/08/22 09:19:49;;;;;;;11.73;3.80;;;21.40;99.90;;;;;;5015339;28;20076;-75
2022/08/22 09:22:36;;;;;;;14.23;3.90;;;21.40;99.90;;;;;;5009335;28;20089;-75
2022/08/22 09:25:35;;;;;;;12.50;4.55;;;21.50;99.90;;;;;;5008699;28;20054;-75
2022/08/22 09:28:17;;;;;;;12.50;3.63;;;21.70;99.90;;;;;;5026832;28;20378;-74
2022/08/22 09:31:30;;;;;;;12.65;3.90;;;21.70;99.90;;;;;;5027132;28;20045;-74
2022/08/22 09:34:11;;;;;;;13.43;3.58;;;21.70;99.90;;;;;;5025187;28;20413;-76
2022/08/22 09:36:53;;;;;;;12.35;3.63;;;21.70;99.90;;;;;;5029196;28;20143;-76
2022/08/22 09:39:39;;;;;;;9.25;3.70;;;21.80;99.90;;;;;;5038553;28;20049;-76
2022/08/22 09:42:21;;;;;;;11.37;4.27;;;21.80;99.90;;;;;;5041949;28;20045;-76
2022/08/22 09:45:17;;;;;;;14.35;3.88;;;21.90;99.90;;;;;;5033692;28;20076;-78
2022/08/22 09:47:57;;;;;;;11.40;3.47;;;21.90;99.90;;;;;;5029357;28;20052;-76
2022/08/22 09:50:43;;;;;;;8.77;3.35;;;21.90;99.90;;;;;;5031747;28;20111;-80
2022/08/22 09:53:12;;;;;;;;;;;22.00;99.90;;;;;;5026553;28;20127;-79
2022/08/22 09:55:59;;;;;;;11.73;3.55;;;21.90;99.90;;;;;;5031605;28;19928;-80
2022/08/22 09:58:33;;;;;;;;;;;22.00;99.90;;;;;;5022792;28;20061;-82
2022/08/22 10:01:08;;;;;;;10.25;3.63;;;21.90;99.90;;;;;;5034017;28;19946;-77
2022/08/22 10:04:11;;;;;;;10.38;3.50;;;22.10;99.90;;;;;;5030179;28;20041;-77
2022/08/22 10:06:54;;;;;;;11.77;2.92;;;22.10;99.90;;;;;;5028792;28;20125;-78
2022/08/22 10:09:37;;;;;;;9.82;3.30;;;22.20;99.90;;;;;;5030791;28;20050;-77
2022/08/22 10:12:09;;;;;;;10.93;3.22;;;22.30;99.90;;;;;;5027590;28;20083;-77
2022/08/22 10:15:03;;;;;;;9.13;2.97;;;22.30;99.90;;;;;;5028564;28;20048;-76
2022/08/22 10:17:40;;;;;;;11.50;3.33;;;22.40;99.90;;;;;;5014251;28;20054;-77
2022/08/22 10:20:34;;;;;;;12.85;3.83;;;22.40;99.90;;;;;;5029155;28;20077;-77
2022/08/22 10:23:25;;;;;;;10.13;3.20;;;22.50;99.90;;;;;;5030364;28;20052;-76
2022/08/22 10:25:55;;;;;;;12.85;3.47;;;22.40;99.90;;;;;;5026484;28;21587;-77
2022/08/22 10:28:49;;;;;;;9.48;3.20;;;22.40;99.90;;;;;;5030676;28;20049;-78
2022/08/22 10:31:39;;;;;;;9.40;3.40;;;22.50;99.90;;;;;;5021847;28;20508;-79
2022/08/22 10:34:15;;;;;;;10.75;3.25;;;22.50;99.90;;;;;;5020872;28;20056;-80
2022/08/22 10:36:54;;;;;;;10.07;3.30;;;22.50;99.90;;;;;;5027309;28;20054;-76
2022/08/22 10:39:33;;;;;;;9.38;2.92;;;22.60;99.90;;;;;;5030047;28;20064;-75
2022/08/22 10:42:25;;;;;;;10.32;3.22;;;22.70;99.90;;;;;;5025842;28;20041;-75
2022/08/22 10:44:53;;;;;;;13.07;3.72;;;22.80;99.90;;;;;;5026117;28;20096;-74
2022/08/22 10:47:33;;;;;;;11.48;3.50;;;22.90;99.90;;;;;;5025346;28;20043;-76
2022/08/22 10:50:11;;;;;;;10.63;3.50;;;23.00;99.90;;;;;;5026887;28;20441;-76
2022/08/22 10:52:47;;;;;;;14.68;3.78;;;23.30;99.90;;;;;;5025442;28;20045;-77
2022/08/22 10:55:19;;;;;;;11.80;3.45;;;23.50;99.90;;;;;;5026595;28;20050;-77
2022/08/22 10:58:09;;;;;;;9.45;3.50;;;23.60;99.90;;;;;;5030002;28;20057;-77
2022/08/22 11:01:00;;;;;;;10.68;3.42;;;23.70;99.90;;;;;;5031595;28;20086;-77
2022/08/22 11:03:44;;;;;;;10.05;3.42;;;23.60;99.90;;;;;;5022035;28;20544;-77
2022/08/22 11:06:31;;;;;;;9.73;3.58;;;23.60;99.90;;;;;;5027793;28;20234;-74
2022/08/22 11:09:28;;;;;;;9.65;2.95;;;23.80;99.90;;;;;;5030175;28;20049;-76
2022/08/22 11:12:01;;;;;;;;;;;23.90;99.90;;;;;;5013623;28;20057;-75
2022/08/22 11:14:30;;;;;;;10.68;3.13;;;24.00;99.90;;;;;;5025600;28;19956;-75
2022/08/22 11:17:13;;;;;;;9.93;3.92;;;24.10;99.90;;;;;;5021424;28;20053;-72
2022/08/22 11:20:21;;;;;;;9.50;3.17;;;24.20;99.90;;;;;;5018771;28;20087;-78
2022/08/22 11:23:21;;;;;;;9.15;3.25;;;24.30;99.90;;;;;;5012177;28;20053;-81
2022/08/22 11:25:56;;;;;;;9.27;3.50;;;24.40;99.90;;;;;;5033049;28;20053;-74
2022/08/22 11:28:31;;;;;;;7.65;2.95;;;24.60;99.90;;;;;;5028462;28;20171;-75
2022/08/22 11:31:26;;;;;;;8.98;3.05;;;24.70;99.90;;;;;;5018369;28;20060;-76
2022/08/22 11:34:05;;;;;;;11.57;2.97;;;24.70;99.90;;;;;;5027269;28;20045;-76
2022/08/22 11:36:54;;;;;;;10.63;2.95;;;24.80;99.90;;;;;;5025827;28;20057;-76
2022/08/22 11:40:02;;;;;;;10.52;3.10;;;25.00;99.90;;;;;;5028677;28;20053;-76
2022/08/22 11:42:54;;;;;;;11.65;3.13;;;25.10;99.90;;;;;;5026725;28;20057;-76
2022/08/22 11:45:26;;;;;;;10.65;3.50;;;25.00;99.90;;;;;;5013349;28;20050;-76
2022/08/22 11:48:03;;;;;;;9.85;3.40;;;25.00;99.70;;;;;;5021181;28;20033;-76
2022/08/22 11:50:44;;;;;;;13.40;3.65;;;24.90;99.90;;;;;;5028380;28;20042;-76
2022/08/22 11:53:26;;;;;;;9.75;3.58;;;24.90;99.80;;;;;;5027910;28;20147;-76
2022/08/22 11:56:06;;;;;;;12.15;3.80;;;24.90;99.90;;;;;;5024411;28;20141;-76
2022/08/22 11:59:14;;;;;;;13.00;3.88;;;25.00;99.90;;;;;;5019178;28;20037;-80
2022/08/22 12:01:51;;;;;;;10.25;3.10;;;25.20;99.90;;;;;;5018911;28;20524;-73
2022/08/22 12:04:32;;;;;;;10.05;3.58;;;25.20;99.90;;;;;;5022656;28;20096;-74
2022/08/22 12:07:17;;;;;;;11.40;3.30;;;25.40;99.80;;;;;;5027994;28;20050;-74
2022/08/22 12:09:50;;;;;;;9.80;3.40;;;25.50;99.90;;;;;;5019983;28;20060;-74
2022/08/22 12:12:21;;;;;;;8.05;3.10;;;25.60;99.90;;;;;;5022772;28;20045;-74
2022/08/22 12:15:10;;;;;;;8.77;3.03;;;25.60;99.00;;;;;;5023371;28;20132;-73
2022/08/22 12:18:03;;;;;;;7.95;3.17;;;25.70;99.40;;;;;;5026134;28;20057;-73
2022/08/22 12:21:00;;;;;;;9.85;2.95;;;25.80;97.20;;;;;;5023981;28;20052;-72
2022/08/22 12:23:50;;;;;;;10.07;2.90;;;25.90;98.00;;;;;;5020919;28;20053;-72
2022/08/22 12:26:33;;;;;;;10.93;3.15;;;26.00;98.00;;;;;;5024345;28;20408;-73
2022/08/22 12:29:25;;;;;;;11.85;3.60;;;26.20;97.00;;;;;;5028647;28;20043;-75
2022/08/22 12:32:08;;;;;;;9.52;3.08;;;26.30;96.30;;;;;;5021405;28;20045;-75
2022/08/22 12:35:05;;;;;;;6.63;2.65;;;26.40;95.10;;;;;;5022640;28;20052;-76
2022/08/22 12:37:49;;;;;;;7.65;3.15;;;26.50;89.60;;;;;;5019428;28;20556;-74
2022/08/22 12:40:33;;;;;;;8.32;3.17;;;26.50;86.70;;;;;;5021443;28;20084;-75
2022/08/22 12:43:28;;;;;;;6.90;2.60;;;26.50;76.80;;;;;;5017096;28;20044;-74
2022/08/22 12:46:08;;;;;;;9.18;2.95;;;26.60;87.10;;;;;;5017515;28;20044;-75
2022/08/22 12:49:04;;;;;;;8.77;3.08;;;26.60;86.60;;;;;;5027566;28;20140;-75
2022/08/22 12:51:59;;;;;;;7.93;2.83;;;26.80;90.00;;;;;;5022441;28;20495;-75
2022/08/22 12:55:10;;;;;;;8.13;2.85;;;26.90;91.20;;;;;;5027098;28;20117;-73
2022/08/22 12:58:01;;;;;;;7.53;2.42;;;27.10;79.30;;;;;;5000535;28;20065;-75
2022/08/22 13:00:34;;;;;;;6.07;2.80;;;27.20;75.60;;;;;;5023298;28;20432;-72
2022/08/22 13:03:08;;;;;;;7.68;2.60;;;27.30;70.50;;;;;;5024816;28;20045;-72
2022/08/22 13:05:35;;;;;;;8.88;3.03;;;27.40;73.10;;;;;;5027329;28;20042;-72
2022/08/22 13:08:06;;;;;;;6.28;2.30;;;27.60;70.90;;;;;;5032058;28;20076;-73
2022/08/22 13:10:45;;;;;;;6.10;2.00;;;27.70;67.70;;;;;;5025189;28;20087;-72
2022/08/22 13:13:31;;;;;;;8.68;2.80;;;27.90;69.30;;;;;;5030040;28;20063;-72
2022/08/22 13:16:06;;;;;;;12.70;3.15;;;28.00;66.50;;;;;;5024766;28;20052;-73
2022/08/22 13:18:38;;;;;;;7.15;2.28;;;28.00;66.40;;;;;;5031195;28;20087;-73
2022/08/22 13:21:09;;;;;;;8.82;2.60;;;28.10;66.20;;;;;;5025118;28;20049;-74
2022/08/22 13:23:43;;;;;;;9.07;2.88;;;28.00;63.00;;;;;;5029964;28;20084;-74
2022/08/22 13:26:16;;;;;;;9.00;2.95;;;27.90;63.50;;;;;;5029238;28;20396;-73
2022/08/22 13:28:56;;;;;;;6.90;2.40;;;27.70;62.50;;;;;;5029242;28;20034;-73
2022/08/22 13:31:29;;;;;;;6.68;2.70;;;27.60;64.90;;;;;;5029139;28;20049;-74
2022/08/22 13:34:09;;;;;;;7.07;2.33;;;27.60;64.10;;;;;;5028407;28;20042;-74
2022/08/22 13:36:48;;;;;;;8.65;2.35;;;27.50;66.40;;;;;;5027143;28;20568;-74
2022/08/22 13:39:14;;;;;;;7.57;2.42;;;27.50;65.00;;;;;;5029584;28;20088;-75
2022/08/22 13:41:50;;;;;;;8.63;2.43;;;27.50;65.20;;;;;;5023795;28;20079;-75
2022/08/22 13:44:24;;;;;;;9.13;2.65;;;27.60;65.90;;;;;;5027037;28;20642;-75
2022/08/22 13:46:50;;;;;;;6.78;2.67;;;27.80;62.60;;;;;;5027951;28;20179;-75
2022/08/22 13:49:19;;;;;;;7.80;2.58;;;27.90;59.40;;;;;;5025382;28;20049;-74
2022/08/22 13:52:05;;;;;;;6.22;2.55;;;28.00;57.80;;;;;;5028023;28;20519;-72
2022/08/22 13:54:50;;;;;;;9.03;3.00;;;28.10;58.00;;;;;;5029793;28;20038;-76
2022/08/22 13:57:19;;;;;;;8.43;2.33;;;28.10;57.30;;;;;;5025850;28;20517;-77
2022/08/22 14:00:12;;;;;;;7.93;2.40;;;28.00;57.90;;;;;;5025887;28;20059;-76
2022/08/22 14:03:00;;;;;;;8.13;2.10;;;28.10;58.70;;;;;;5022711;28;20052;-77